Time;durP1;ratioP1;P1;durP2;ratioP2;P2;SDS_P1;SDS_P2;PMS_P1;PMS_P2;Temp;Humidity;BMP_temperature;BMP_pressure;BME280_temperature;BME280_humidity;BME280_pressure;Samples;Min_cycle;Max_cycle;Signal;HPM_P1;HPM_P2
2023/07/01 00:01:56;;;;;;;;;2.00;2.00;;;;;21.25;53.24;100639.69;5093888;27;46054;-71
2023/07/01 00:04:21;;;;;;;;;2.00;2.00;;;;;21.22;53.52;100637.97;5069353;28;45694;-72
2023/07/01 00:06:46;;;;;;;;;1.67;1.67;;;;;21.16;54.58;100632.63;5080056;27;45173;-71
2023/07/01 00:09:11;;;;;;;;;4.00;4.00;;;;;21.12;56.14;100639.94;5089680;28;45008;-72
2023/07/01 00:11:37;;;;;;;;;4.00;1.67;;;;;21.12;56.66;100629.09;5093111;27;45681;-71
2023/07/01 00:14:03;;;;;;;;;3.00;2.00;;;;;21.08;56.83;100611.03;5092701;28;45182;-71
2023/07/01 00:16:29;;;;;;;;;2.00;2.00;;;;;21.04;57.10;100617.47;5092799;28;44988;-71
2023/07/01 00:18:54;;;;;;;;;2.00;2.00;;;;;21.12;57.24;100636.34;5094494;28;45147;-71
2023/07/01 00:21:20;;;;;;;;;4.00;2.67;;;;;21.12;56.70;100631.81;5092347;27;45172;-70
2023/07/01 00:23:45;;;;;;;;;1.00;1.00;;;;;21.07;56.83;100616.50;5092517;27;45121;-72
2023/07/01 00:26:10;;;;;;;;;1.00;1.00;;;;;20.92;57.33;100605.03;5093053;27;45122;-70
2023/07/01 00:28:36;;;;;;;;;1.00;1.00;;;;;20.94;57.97;100622.19;5090943;28;45162;-71
2023/07/01 00:31:01;;;;;;;;;2.00;2.00;;;;;20.95;58.21;100612.19;5092865;27;45674;-71
2023/07/01 00:33:27;;;;;;;;;6.33;4.00;;;;;20.94;57.92;100603.16;5092866;27;45084;-71
2023/07/01 00:35:52;;;;;;;;;7.00;3.00;;;;;20.92;57.51;100598.66;5090573;28;45292;-70
2023/07/01 00:38:18;;;;;;;;;4.67;3.67;;;;;20.92;57.66;100601.38;5090985;28;45306;-71
2023/07/01 00:40:43;;;;;;;;;3.00;3.00;;;;;20.93;57.85;100600.47;5089087;27;47680;-71
2023/07/01 00:43:08;;;;;;;;;2.67;2.67;;;;;20.74;57.51;100587.25;5072659;28;45103;-70
2023/07/01 00:45:34;;;;;;;;;3.00;3.00;;;;;20.81;57.75;100596.19;5089763;28;45153;-71
2023/07/01 00:47:59;;;;;;;;;4.00;3.00;;;;;20.82;57.73;100594.34;5093027;27;45254;-71
2023/07/01 00:50:24;;;;;;;;;4.33;3.00;;;;;20.76;58.16;100595.38;5092407;27;45559;-71
2023/07/01 00:52:50;;;;;;;;;4.00;2.67;;;;;20.74;57.97;100589.03;5089886;28;44925;-71
2023/07/01 00:55:16;;;;;;;;;3.00;3.00;;;;;20.59;58.56;100563.03;5093142;28;45241;-69
2023/07/01 00:57:42;;;;;;;;;5.67;2.33;;;;;20.72;59.05;100583.66;5082246;28;45381;-71
2023/07/01 01:00:10;;;;;;;;;5.00;3.33;;;;;20.70;59.24;100569.22;5084956;27;45414;-72
2023/07/01 01:02:51;;;;;;;;;2.00;2.00;;;;;20.82;58.85;100570.78;5092187;27;45193;-70
2023/07/01 01:05:21;;;;;;;;;3.00;3.00;;;;;20.60;59.35;100546.72;5092255;27;44957;-69
2023/07/01 01:07:56;;;;;;;;;4.00;3.33;;;;;20.70;59.47;100565.59;5091774;28;45495;-70
2023/07/01 01:10:23;;;;;;;;;3.00;1.67;;;;;20.71;59.70;100583.69;5089147;28;45695;-70
2023/07/01 01:12:53;;;;;;;;;2.00;2.00;;;;;20.53;60.46;100544.16;5092625;28;45035;-70
2023/07/01 01:15:20;;;;;;;;;2.00;2.00;;;;;20.66;61.13;100564.78;5091963;27;45294;-70
2023/07/01 01:17:49;;;;;;;;;1.33;1.33;;;;;20.68;60.96;100567.47;5092093;28;45247;-71
2023/07/01 01:20:20;;;;;;;;;3.00;2.00;;;;;20.33;61.86;100521.00;5091249;27;45810;-71
2023/07/01 01:22:56;;;;;;;;;2.33;2.33;;;;;20.53;62.55;100568.59;5085672;27;45150;-70
2023/07/01 01:25:29;;;;;;;;;1.00;1.00;;;;;20.37;63.51;100555.28;5079569;28;45264;-70
2023/07/01 01:27:59;;;;;;;;;1.00;1.00;;;;;20.39;64.21;100566.09;5079547;28;44941;-70
2023/07/01 01:30:28;;;;;;;;;2.00;2.00;;;;;20.28;64.75;100559.97;5087685;28;45816;-72
2023/07/01 01:32:54;;;;;;;;;3.00;1.00;;;;;20.28;65.65;100555.44;5082713;28;45187;-71
2023/07/01 01:35:19;;;;;;;;;3.00;2.00;;;;;20.18;65.89;100549.28;5086036;28;45011;-71
2023/07/01 01:38:00;;;;;;;;;1.00;1.00;;;;;20.11;66.07;100547.56;5092984;27;45307;-71
2023/07/01 01:40:32;;;;;;;;;2.00;2.00;;;;;19.99;66.28;100539.63;5072500;28;47191;-71
2023/07/01 01:43:10;;;;;;;;;4.67;3.00;;;;;20.03;66.49;100541.41;5090412;28;45142;-70
2023/07/01 01:45:37;;;;;;;;;4.00;2.33;;;;;19.92;67.10;100522.56;5092020;28;45111;-70
2023/07/01 01:48:04;;;;;;;;;3.33;2.33;;;;;19.85;66.83;100505.50;5092736;27;44891;-70
2023/07/01 01:50:31;;;;;;;;;7.00;4.67;;;;;19.95;66.33;100525.25;5077306;27;46412;-69
2023/07/01 01:52:58;;;;;;;;;3.00;3.00;;;;;19.86;66.78;100509.09;5091942;27;45125;-70
2023/07/01 01:55:25;;;;;;;;;7.33;5.00;;;;;19.89;66.96;100528.03;5092424;27;45130;-70
2023/07/01 01:57:51;;;;;;;;;5.33;5.00;;;;;19.94;66.81;100520.72;5091989;27;45116;-70
2023/07/01 02:00:17;;;;;;;;;6.00;3.67;;;;;20.00;67.41;100531.47;5078377;27;45642;-69
2023/07/01 02:02:42;;;;;;;;;6.00;6.00;;;;;20.01;66.71;100530.56;5083455;28;45166;-68
2023/07/01 02:05:08;;;;;;;;;5.67;4.67;;;;;19.83;67.01;100506.44;5088230;27;45666;-70
2023/07/01 02:07:33;;;;;;;;;6.67;5.00;;;;;19.81;66.72;100497.44;5092740;28;45129;-70
2023/07/01 02:09:59;;;;;;;;;3.00;3.00;;;;;19.94;67.10;100526.16;5086184;28;52482;-69
2023/07/01 02:12:26;;;;;;;;;5.00;5.00;;;;;19.93;67.64;100512.63;5091207;28;44941;-69
2023/07/01 02:14:51;;;;;;;;;2.67;2.00;;;;;19.93;67.35;100505.41;5089748;27;45066;-70
2023/07/01 02:17:16;;;;;;;;;5.00;4.00;;;;;19.95;67.53;100505.38;5087039;27;44937;-70
2023/07/01 02:19:42;;;;;;;;;4.33;4.00;;;;;19.96;67.26;100501.72;5091534;27;46121;-70
2023/07/01 02:22:07;;;;;;;;;4.67;4.33;;;;;19.82;67.62;100482.97;5084668;28;44874;-69
2023/07/01 02:24:32;;;;;;;;;5.00;5.00;;;;;19.82;67.13;100477.56;5088049;28;45035;-69
2023/07/01 02:26:59;;;;;;;;;6.00;6.00;;;;;19.86;67.31;100491.03;5091127;27;45012;-70
2023/07/01 02:29:24;;;;;;;;;4.67;4.00;;;;;19.90;67.54;100491.88;5090285;27;46287;-69
2023/07/01 02:31:50;;;;;;;;;4.67;3.67;;;;;19.87;67.45;100481.09;5088267;27;45271;-71
2023/07/01 02:34:15;;;;;;;;;7.00;4.00;;;;;19.81;67.65;100479.34;5091408;27;45039;-68
2023/07/01 02:36:43;;;;;;;;;3.67;3.67;;;;;19.82;67.51;100481.16;5082670;28;45124;-70
2023/07/01 02:39:08;;;;;;;;;3.00;3.00;;;;;19.88;67.38;100485.56;5084434;28;45755;-71
2023/07/01 02:41:33;;;;;;;;;3.00;3.00;;;;;19.83;68.04;100477.53;5090161;28;45107;-70
2023/07/01 02:43:59;;;;;;;;;3.67;3.67;;;;;19.85;67.92;100470.25;5090340;27;53332;-70
2023/07/01 02:46:27;;;;;;;;;1.33;1.33;;;;;19.87;68.08;100472.94;5090489;28;45152;-70
2023/07/01 02:48:52;;;;;;;;;4.33;2.67;;;;;19.92;68.05;100475.59;5089790;27;45612;-70
2023/07/01 02:51:17;;;;;;;;;4.00;4.00;;;;;19.84;68.05;100464.88;5091193;28;44905;-71
2023/07/01 02:53:43;;;;;;;;;3.67;2.00;;;;;19.87;68.25;100463.00;5091145;27;44858;-68
2023/07/01 02:56:08;;;;;;;;;4.00;2.33;;;;;19.91;68.15;100462.94;5091465;28;45106;-68
2023/07/01 02:58:33;;;;;;;;;6.67;3.67;;;;;19.77;68.65;100436.97;5091533;27;44984;-71
2023/07/01 03:00:59;;;;;;;;;2.00;2.00;;;;;19.95;68.47;100462.88;5089099;28;51286;-70
2023/07/01 03:03:24;;;;;;;;;3.33;3.33;;;;;19.94;68.14;100460.19;5083855;28;45289;-70
2023/07/01 03:05:49;;;;;;;;;2.00;2.00;;;;;19.95;68.12;100460.16;5091111;27;44892;-67
2023/07/01 03:08:15;;;;;;;;;1.33;1.33;;;;;19.98;67.75;100462.81;5085864;28;45350;-70
2023/07/01 03:10:40;;;;;;;;;1.00;1.00;;;;;19.93;67.86;100459.31;5084246;28;45153;-70
2023/07/01 03:13:05;;;;;;;;;2.67;2.00;;;;;19.89;67.80;100444.88;5085667;28;45053;-70
2023/07/01 03:15:30;;;;;;;;;1.00;1.00;;;;;19.91;68.15;100447.56;5091602;28;45194;-70
2023/07/01 03:17:56;;;;;;;;;1.00;1.00;;;;;19.94;68.41;100454.75;5090915;28;58935;-68
2023/07/01 03:20:24;;;;;;;;;1.00;1.00;;;;;19.89;68.26;100453.00;5078599;28;55649;-69
2023/07/01 03:22:56;;;;;;;;;1.00;1.00;;;;;19.88;68.61;100451.25;5089863;27;45519;-70
2023/07/01 03:25:22;;;;;;;;;0.33;0.33;;;;;19.91;68.58;100449.38;5090547;28;45011;-70
2023/07/01 03:27:48;;;;;;;;;2.00;2.00;;;;;19.82;68.50;100432.34;5090482;27;45634;-69
2023/07/01 03:30:16;;;;;;;;;4.33;1.00;;;;;19.92;68.40;100438.53;5090192;28;45190;-70
2023/07/01 03:32:46;;;;;;;;;1.00;1.00;;;;;19.93;68.35;100447.53;5071798;28;45339;-69
2023/07/01 03:35:13;;;;;;;;;4.00;1.33;;;;;19.92;68.84;100434.94;5080807;27;45312;-70
2023/07/01 03:37:41;;;;;;;;;1.00;1.00;;;;;19.96;68.62;100442.06;5081245;27;45272;-69
2023/07/01 03:40:13;;;;;;;;;1.33;1.00;;;;;19.93;69.04;100434.91;5088852;27;45027;-71
2023/07/01 03:42:42;;;;;;;;;1.00;1.00;;;;;19.95;69.32;100432.16;5076417;27;45163;-69
2023/07/01 03:45:10;;;;;;;;;1.00;1.00;;;;;20.02;69.27;100432.00;5086871;28;45080;-69
2023/07/01 03:47:41;;;;;;;;;1.33;1.00;;;;;19.98;69.23;100426.66;5093790;27;45771;-70
2023/07/01 03:50:10;;;;;;;;;1.00;1.00;;;;;19.94;69.34;100420.41;5085233;28;45460;-70
2023/07/01 03:52:36;;;;;;;;;0.33;0.33;;;;;19.99;69.63;100426.63;5086609;27;45511;-71
2023/07/01 03:55:06;;;;;;;;;2.00;1.00;;;;;20.00;69.83;100425.72;5081614;27;44944;-69
2023/07/01 03:57:32;;;;;;;;;2.00;0.67;;;;;19.99;69.96;100426.63;5088681;27;45228;-69
2023/07/01 03:59:57;;;;;;;;;1.00;1.00;;;;;19.99;70.07;100414.91;5080280;28;44929;-69
2023/07/01 04:02:23;;;;;;;;;1.00;1.00;;;;;20.01;70.43;100415.75;5086819;28;45091;-69
2023/07/01 04:04:49;;;;;;;;;1.00;1.00;;;;;19.98;70.75;100411.31;5081771;28;44953;-69
2023/07/01 04:07:15;;;;;;;;;1.00;1.00;;;;;19.95;69.92;100410.47;5086381;27;45650;-70
2023/07/01 04:09:41;;;;;;;;;0.00;0.00;;;;;19.97;70.48;100414.03;5082377;28;45222;-70
2023/07/01 04:12:07;;;;;;;;;0.00;0.00;;;;;19.91;70.52;100400.59;5093933;28;44961;-70
2023/07/01 04:14:32;;;;;;;;;5.33;1.00;;;;;19.89;70.87;100406.03;5088644;28;45095;-70
2023/07/01 04:16:58;;;;;;;;;1.00;1.00;;;;;19.92;70.95;100405.09;5083756;28;45173;-69
2023/07/01 04:19:23;;;;;;;;;0.00;0.00;;;;;19.93;70.78;100405.06;5088247;28;45131;-70
2023/07/01 04:21:48;;;;;;;;;1.00;0.00;;;;;19.92;71.19;100403.28;5091716;28;45175;-71
2023/07/01 04:24:14;;;;;;;;;0.00;0.00;;;;;19.86;71.06;100393.44;5093511;27;45278;-71
2023/07/01 04:26:41;;;;;;;;;1.00;1.00;;;;;19.90;71.61;100407.84;5087630;28;45323;-71
2023/07/01 04:29:07;;;;;;;;;0.67;0.67;;;;;19.97;72.12;100401.38;5084322;28;45142;-71
2023/07/01 04:31:33;;;;;;;;;1.00;1.00;;;;;20.00;71.17;100405.84;5094622;27;45037;-71
2023/07/01 04:33:58;;;;;;;;;1.00;1.00;;;;;19.96;71.59;100395.97;5095000;27;45092;-70
2023/07/01 04:36:23;;;;;;;;;0.00;0.00;;;;;19.94;71.86;100393.28;5091168;27;45521;-70
2023/07/01 04:38:49;;;;;;;;;0.00;0.00;;;;;19.99;71.50;100402.22;5083410;27;45100;-70
2023/07/01 04:41:14;;;;;;;;;0.00;0.00;;;;;20.03;71.60;100412.13;5093980;28;44889;-68
2023/07/01 04:43:40;;;;;;;;;1.00;1.00;;;;;20.05;71.87;100401.25;5081705;28;45076;-71
2023/07/01 04:46:05;;;;;;;;;0.00;0.00;;;;;20.03;71.82;100387.72;5091038;27;45567;-71
2023/07/01 04:48:30;;;;;;;;;0.00;0.00;;;;;19.98;72.07;100392.31;5094146;28;44967;-67
2023/07/01 04:50:56;;;;;;;;;2.00;0.00;;;;;19.89;72.04;100378.91;5091690;27;45027;-72
2023/07/01 04:53:22;;;;;;;;;0.00;0.00;;;;;19.94;72.46;100387.88;5073565;28;45034;-71
2023/07/01 04:55:47;;;;;;;;;0.00;0.00;;;;;19.85;72.54;100375.38;5088394;27;45655;-70
2023/07/01 04:58:12;;;;;;;;;1.33;0.33;;;;;19.93;72.67;100380.69;5087038;27;45098;-71
2023/07/01 05:00:38;;;;;;;;;0.33;0.33;;;;;19.95;72.82;100386.97;5075908;28;45168;-68
2023/07/01 05:03:04;;;;;;;;;1.00;1.00;;;;;19.98;72.46;100385.97;5093062;28;45393;-70
2023/07/01 05:05:30;;;;;;;;;0.00;0.00;;;;;19.88;72.38;100369.91;5092842;28;45250;-70
2023/07/01 05:07:55;;;;;;;;;0.00;0.00;;;;;19.99;72.30;100382.38;5071945;28;45207;-70
2023/07/01 05:10:20;;;;;;;;;0.00;0.00;;;;;19.96;72.20;100375.16;5078857;27;45141;-68
2023/07/01 05:12:46;;;;;;;;;0.00;0.00;;;;;19.93;73.08;100366.19;5087461;27;45223;-68
2023/07/01 05:15:11;;;;;;;;;0.33;0.33;;;;;20.05;72.93;100376.84;5070029;28;45874;-68
2023/07/01 05:17:40;;;;;;;;;0.33;0.33;;;;;20.09;72.54;100385.81;5081489;28;45011;-72
2023/07/01 05:20:06;;;;;;;;;0.33;0.33;;;;;20.10;72.56;100379.47;5069176;28;45227;-70
2023/07/01 05:22:32;;;;;;;;;0.00;0.00;;;;;20.09;73.29;100388.50;5085500;28;45149;-71
2023/07/01 05:24:58;;;;;;;;;2.00;0.00;;;;;20.11;72.72;100378.53;5093198;27;46504;-72
2023/07/01 05:27:23;;;;;;;;;0.00;0.00;;;;;20.12;73.08;100380.31;5093327;27;45129;-68
2023/07/01 05:29:48;;;;;;;;;1.00;1.00;;;;;20.12;72.86;100372.19;5085615;28;45337;-69
2023/07/01 05:32:14;;;;;;;;;0.33;0.33;;;;;20.12;72.88;100364.06;5090363;28;45331;-70
2023/07/01 05:34:39;;;;;;;;;1.00;1.00;;;;;20.09;73.04;100373.13;5089259;27;45790;-68
2023/07/01 05:37:04;;;;;;;;;0.00;0.00;;;;;20.12;73.41;100377.63;5092689;28;47219;-68
2023/07/01 05:39:30;;;;;;;;;0.00;0.00;;;;;20.09;73.45;100372.25;5074712;28;45773;-70
2023/07/01 05:41:56;;;;;;;;;0.67;0.67;;;;;20.06;73.67;100374.09;5087868;28;44973;-69
2023/07/01 05:44:24;;;;;;;;;0.00;0.00;;;;;20.09;73.11;100372.25;5081226;28;46422;-70
2023/07/01 05:46:49;;;;;;;;;0.67;0.67;;;;;20.12;73.19;100364.94;5092307;27;45049;-68
2023/07/01 05:49:15;;;;;;;;;0.00;0.00;;;;;20.15;73.52;100373.03;5084004;28;45083;-71
2023/07/01 05:51:40;;;;;;;;;1.00;1.00;;;;;20.17;73.96;100370.28;5078463;28;45162;-71
2023/07/01 05:54:05;;;;;;;;;1.67;1.00;;;;;20.22;73.56;100371.06;5091861;28;45075;-69
2023/07/01 05:56:31;;;;;;;;;1.33;0.67;;;;;20.22;73.59;100374.69;5083154;27;45482;-69
2023/07/01 05:58:56;;;;;;;;;0.67;0.67;;;;;20.18;73.41;100359.41;5090937;27;45098;-70
2023/07/01 06:01:21;;;;;;;;;0.00;0.00;;;;;20.27;73.42;100368.28;5085621;27;45276;-72
2023/07/01 06:03:47;;;;;;;;;0.00;0.00;;;;;20.23;73.35;100362.03;5078102;28;45431;-71
2023/07/01 06:06:12;;;;;;;;;0.33;0.00;;;;;20.18;73.55;100356.69;5077867;27;45029;-70
2023/07/01 06:08:37;;;;;;;;;0.00;0.00;;;;;20.29;73.92;100363.72;5090351;28;45041;-70
2023/07/01 06:11:03;;;;;;;;;0.00;0.00;;;;;20.32;73.85;100369.97;5092230;28;45291;-71
2023/07/01 06:13:28;;;;;;;;;1.00;1.00;;;;;20.37;73.78;100373.47;5092250;28;45155;-70
2023/07/01 06:15:53;;;;;;;;;0.00;0.00;;;;;20.35;73.93;100375.34;5088594;27;46056;-72
2023/07/01 06:18:19;;;;;;;;;0.00;0.00;;;;;20.37;74.02;100380.72;5085867;27;47884;-71
2023/07/01 06:20:44;;;;;;;;;0.00;0.00;;;;;20.42;74.24;100373.41;5083628;28;45691;-71
2023/07/01 06:23:09;;;;;;;;;1.00;1.00;;;;;20.47;74.28;100374.19;5083074;28;45460;-71
2023/07/01 06:25:35;;;;;;;;;0.00;0.00;;;;;20.36;73.51;100358.16;5083762;28;45189;-72
2023/07/01 06:28:00;;;;;;;;;2.00;0.00;;;;;20.38;74.15;100359.00;5092060;28;45056;-70
2023/07/01 06:30:25;;;;;;;;;0.00;0.00;;;;;20.41;74.19;100355.34;5093117;28;45158;-71
2023/07/01 06:32:52;;;;;;;;;1.00;1.00;;;;;20.52;73.42;100372.28;5092142;28;45739;-72
2023/07/01 06:35:17;;;;;;;;;1.33;1.00;;;;;20.46;73.43;100358.84;5070798;28;45309;-69
2023/07/01 06:37:42;;;;;;;;;0.00;0.00;;;;;20.51;73.64;100365.06;5084751;27;45286;-72
2023/07/01 06:40:08;;;;;;;;;0.00;0.00;;;;;20.43;73.75;100348.06;5082610;27;44931;-71
2023/07/01 06:42:35;;;;;;;;;2.00;0.00;;;;;20.53;73.59;100357.78;5084403;28;45183;-70
2023/07/01 06:45:01;;;;;;;;;0.67;0.33;;;;;20.50;73.73;100352.41;5068850;28;45347;-71
2023/07/01 06:47:26;;;;;;;;;0.00;0.00;;;;;20.56;73.98;100363.16;5071013;28;45276;-71
2023/07/01 06:49:51;;;;;;;;;2.33;0.67;;;;;20.58;74.16;100349.56;5089528;28;45052;-71
2023/07/01 06:52:17;;;;;;;;;1.00;0.00;;;;;20.71;73.76;100361.09;5068937;28;47864;-70
2023/07/01 06:54:42;;;;;;;;;1.00;1.00;;;;;20.76;73.06;100362.75;5085667;28;45245;-70
2023/07/01 06:57:07;;;;;;;;;0.33;0.33;;;;;20.74;72.90;100351.03;5088930;28;45110;-72
2023/07/01 06:59:33;;;;;;;;;0.33;0.33;;;;;20.87;72.52;100353.47;5089347;28;45043;-70
2023/07/01 07:01:58;;;;;;;;;1.00;1.00;;;;;20.97;71.99;100358.69;5080321;28;47857;-69
2023/07/01 07:04:23;;;;;;;;;0.67;0.00;;;;;20.98;71.92;100355.00;5087550;28;44729;-69
2023/07/01 07:06:49;;;;;;;;;0.00;0.00;;;;;21.04;71.59;100361.25;5082029;27;45122;-71
2023/07/01 07:09:15;;;;;;;;;2.00;1.00;;;;;21.07;71.51;100350.28;5072792;28;45231;-71
2023/07/01 07:11:41;;;;;;;;;1.00;1.00;;;;;21.08;70.89;100361.13;5085588;28;46629;-70
2023/07/01 07:14:06;;;;;;;;;0.67;0.33;;;;;21.07;70.92;100355.72;5090878;27;44986;-71
2023/07/01 07:16:34;;;;;;;;;1.00;1.00;;;;;21.15;70.33;100356.44;5089755;27;46015;-69
2023/07/01 07:19:00;;;;;;;;;0.00;0.00;;;;;21.15;70.51;100365.50;5091397;28;45198;-69
2023/07/01 07:21:25;;;;;;;;;0.00;0.00;;;;;21.09;70.43;100341.19;5091152;27;45838;-69
2023/07/01 07:23:50;;;;;;;;;1.00;1.00;;;;;21.20;70.85;100359.97;5089885;28;45148;-71
2023/07/01 07:26:16;;;;;;;;;0.33;0.33;;;;;21.18;70.64;100350.94;5088251;27;45181;-71
2023/07/01 07:28:41;;;;;;;;;2.00;0.00;;;;;21.16;71.10;100339.22;5087867;27;45234;-69
2023/07/01 07:31:06;;;;;;;;;1.67;1.00;;;;;21.26;70.90;100353.47;5071505;28;45336;-71
2023/07/01 07:33:32;;;;;;;;;3.00;2.00;;;;;21.31;70.81;100357.88;5089806;27;45235;-67
2023/07/01 07:35:58;;;;;;;;;1.00;1.00;;;;;21.37;70.65;100359.56;5090206;28;45348;-69
2023/07/01 07:38:23;;;;;;;;;1.00;1.00;;;;;21.23;69.94;100316.41;5090695;27;45559;-70
2023/07/01 07:40:49;;;;;;;;;2.00;1.00;;;;;21.47;69.78;100355.72;5089791;28;46047;-69
2023/07/01 07:43:14;;;;;;;;;1.67;1.67;;;;;21.51;69.57;100354.72;5085588;27;45158;-70
2023/07/01 07:45:40;;;;;;;;;2.33;1.00;;;;;21.49;69.50;100342.97;5085621;27;45436;-71
2023/07/01 07:48:06;;;;;;;;;0.67;0.00;;;;;21.61;69.36;100359.91;5078662;27;45186;-70
2023/07/01 07:50:35;;;;;;;;;1.00;0.33;;;;;21.60;68.93;100336.38;5089852;27;45295;-69
2023/07/01 07:53:01;;;;;;;;;0.33;0.33;;;;;21.70;68.69;100348.81;5082095;27;45412;-70
2023/07/01 07:55:28;;;;;;;;;2.67;1.33;;;;;21.71;68.68;100343.31;5068336;28;45064;-71
2023/07/01 07:57:53;;;;;;;;;0.00;0.00;;;;;21.80;68.35;100350.34;5084705;28;45339;-72
2023/07/01 08:00:19;;;;;;;;;1.67;1.00;;;;;21.71;67.99;100321.56;5067594;28;46503;-70
2023/07/01 08:02:47;;;;;;;;;1.00;1.00;;;;;21.86;67.49;100338.38;5088455;27;45413;-75
2023/07/01 08:05:21;;;;;;;;;0.00;0.00;;;;;21.94;66.78;100338.19;5088337;28;44991;-73
2023/07/01 08:07:47;;;;;;;;;0.33;0.33;;;;;21.96;66.40;100339.03;5071106;28;44977;-73
2023/07/01 08:10:14;;;;;;;;;1.00;1.00;;;;;21.83;66.41;100306.75;5089727;28;46003;-70
2023/07/01 08:12:40;;;;;;;;;1.67;1.00;;;;;22.08;66.25;100330.56;5090018;27;45262;-73
2023/07/01 08:15:06;;;;;;;;;1.00;1.00;;;;;22.07;65.70;100326.03;5090714;27;45423;-74
2023/07/01 08:17:31;;;;;;;;;1.00;0.67;;;;;22.19;65.20;100335.69;5089467;28;45254;-73
2023/07/01 08:19:57;;;;;;;;;1.00;1.00;;;;;22.19;65.26;100333.88;5087299;27;46183;-71
2023/07/01 08:22:22;;;;;;;;;1.00;1.00;;;;;22.14;65.51;100316.78;5089780;28;45101;-73
2023/07/01 08:24:47;;;;;;;;;1.67;1.00;;;;;22.23;65.01;100335.56;5084935;27;45052;-73
2023/07/01 08:27:13;;;;;;;;;0.33;0.33;;;;;22.26;65.27;100331.88;5077003;28;45505;-73
2023/07/01 08:29:38;;;;;;;;;2.00;2.00;;;;;22.21;63.98;100318.38;5089225;27;45475;-74
2023/07/01 08:32:04;;;;;;;;;0.33;0.33;;;;;22.40;64.96;100337.81;5070543;27;45587;-74
2023/07/01 08:34:29;;;;;;;;;3.00;1.00;;;;;22.44;65.41;100350.41;5074629;28;45146;-72
2023/07/01 08:36:55;;;;;;;;;4.00;1.00;;;;;22.27;66.24;100330.91;5085090;28;45883;-71
2023/07/01 08:39:20;;;;;;;;;0.00;0.00;;;;;22.17;66.50;100351.16;5091314;27;45717;-72
2023/07/01 08:41:52;;;;;;;;;3.00;2.00;;;;;22.17;67.05;100359.31;5085132;28;45111;-71
2023/07/01 08:44:19;;;;;;;;;0.00;0.00;;;;;22.14;66.68;100356.69;5091072;27;45202;-73
2023/07/01 08:46:46;;;;;;;;;0.67;0.67;;;;;22.14;65.98;100357.59;5083474;27;45665;-72
2023/07/01 08:49:15;;;;;;;;;0.33;0.00;;;;;21.98;65.58;100368.00;5078283;27;45216;-72
2023/07/01 08:51:43;;;;;;;;;0.00;0.00;;;;;21.92;65.71;100364.56;5091427;27;45004;-73
2023/07/01 08:54:10;;;;;;;;;0.00;0.00;;;;;21.75;65.01;100354.13;5080502;27;45436;-75
2023/07/01 08:56:36;;;;;;;;;0.00;0.00;;;;;21.80;64.84;100355.78;5091935;28;45172;-73
2023/07/01 08:59:02;;;;;;;;;0.00;0.00;;;;;21.62;64.31;100365.31;5058801;28;46915;-70
2023/07/01 09:01:31;;;;;;;;;0.00;0.00;;;;;21.48;64.39;100356.59;5088184;28;45256;-75
2023/07/01 09:03:57;;;;;;;;;0.00;0.00;;;;;21.35;65.49;100339.69;5074352;28;45362;-71
2023/07/01 09:06:23;;;;;;;;;2.00;2.00;;;;;21.46;65.23;100355.72;5073080;28;45528;-72
2023/07/01 09:08:48;;;;;;;;;0.00;0.00;;;;;21.51;65.10;100349.28;5071054;27;46892;-73
2023/07/01 09:11:15;;;;;;;;;0.00;0.00;;;;;21.70;65.00;100348.81;5069607;28;45323;-73
2023/07/01 09:13:41;;;;;;;;;0.00;0.00;;;;;21.80;64.20;100339.47;5064890;27;45468;-75
2023/07/01 09:16:08;;;;;;;;;0.00;0.00;;;;;21.85;63.71;100321.19;5089773;27;45162;-79
2023/07/01 09:18:34;;;;;;;;;0.00;0.00;;;;;22.07;63.12;100340.53;5068569;28;47431;-79
2023/07/01 09:21:15;;;;;;;;;1.00;1.00;;;;;22.22;62.42;100343.75;5093577;27;44898;-76
2023/07/01 09:23:41;;;;;;;;;1.00;0.00;;;;;22.35;62.53;100337.06;5065200;28;45778;-77
2023/07/01 09:26:13;;;;;;;;;0.00;0.00;;;;;22.55;61.67;100339.19;5074866;27;46392;-75
2023/07/01 09:28:40;;;;;;;;;1.00;1.00;;;;;22.69;60.86;100340.63;5067841;28;46219;-77
2023/07/01 09:31:08;;;;;;;;;0.00;0.00;;;;;22.75;59.53;100335.91;5057479;28;45508;-71
2023/07/01 09:33:36;;;;;;;;;0.00;0.00;;;;;22.82;59.92;100334.75;5067494;28;45428;-72
2023/07/01 09:36:04;;;;;;;;;0.00;0.00;;;;;22.93;58.99;100339.88;5086010;27;45619;-74
2023/07/01 09:38:48;;;;;;;;;6.67;6.00;;;;;23.09;60.12;100340.31;5081865;28;45222;-74
2023/07/01 09:41:14;;;;;;;;;1.00;1.00;;;;;23.31;58.88;100343.25;5085697;27;45217;-72
2023/07/01 09:43:43;;;;;;;;;0.00;0.00;;;;;23.44;57.20;100335.53;5061468;28;45500;-72
2023/07/01 09:46:09;;;;;;;;;0.00;0.00;;;;;23.34;56.30;100334.06;5067412;28;45247;-73
2023/07/01 09:48:35;;;;;;;;;0.00;0.00;;;;;23.25;55.20;100326.19;5084816;28;46279;-73
2023/07/01 09:51:04;;;;;;;;;0.00;0.00;;;;;23.33;54.04;100349.53;5087204;27;45312;-72
2023/07/01 09:53:34;;;;;;;;;4.00;2.00;;;;;23.36;55.00;100348.53;5077048;28;45294;-72
2023/07/01 09:56:04;;;;;;;;;0.00;0.00;;;;;23.30;53.29;100340.56;5082479;27;45529;-72
2023/07/01 09:58:31;;;;;;;;;1.00;1.00;;;;;23.29;53.62;100342.38;5083692;28;45621;-72
2023/07/01 10:01:00;;;;;;;;;0.33;0.00;;;;;23.23;52.71;100331.69;5091027;27;45392;-71
2023/07/01 10:03:28;;;;;;;;;0.00;0.00;;;;;23.36;52.44;100345.78;5071301;28;46146;-71
2023/07/01 10:05:54;;;;;;;;;0.00;0.00;;;;;23.32;52.52;100334.09;5089470;27;45170;-71
2023/07/01 10:08:21;;;;;;;;;0.00;0.00;;;;;23.36;52.44;100333.06;5079720;27;45373;-72
2023/07/01 10:11:21;;;;;;;;;1.00;1.00;;;;;23.46;52.88;100335.47;5067488;27;45072;-70
2023/07/01 10:13:51;;;;;;;;;0.00;0.00;;;;;23.34;52.31;100304.94;5057232;27;45000;-73
2023/07/01 10:16:18;;;;;;;;;0.00;0.00;;;;;23.45;51.54;100345.50;5087355;27;45132;-73
2023/07/01 10:18:44;;;;;;;;;0.00;0.00;;;;;23.33;51.94;100337.75;5086352;28;45395;-68
2023/07/01 10:21:30;;;;;;;;;0.00;0.00;;;;;23.16;52.69;100313.75;5068675;27;45551;-71
2023/07/01 10:24:00;;;;;;;;;0.00;0.00;;;;;23.29;52.63;100344.22;5060228;28;45538;-68
2023/07/01 10:26:38;;;;;;;;;1.33;0.00;;;;;23.39;52.53;100334.78;5053356;28;45478;-76
2023/07/01 10:29:28;;;;;;;;;0.00;0.00;;;;;23.48;52.37;100339.06;5068007;28;45461;-77
2023/07/01 10:32:09;;;;;;;;;1.33;1.33;;;;;23.56;51.28;100336.97;5066019;28;45678;-79
2023/07/01 10:34:52;;;;;;;;;4.00;2.00;;;;;23.60;50.46;100338.63;5071455;28;45623;-77
2023/07/01 10:37:25;;;;;;;;;0.00;0.00;;;;;23.54;49.81;100330.66;5073546;27;45656;-78
2023/07/01 10:39:53;;;;;;;;;1.00;1.00;;;;;23.25;49.72;100285.31;5053888;28;46642;-78
2023/07/01 10:42:37;;;;;;;;;2.00;1.00;;;;;23.50;49.41;100321.69;5065869;28;46213;-79
2023/07/01 10:45:12;;;;;;;;;0.00;0.00;;;;;23.61;49.59;100337.69;5049831;28;45625;-76
2023/07/01 10:47:44;;;;;;;;;0.67;0.67;;;;;23.57;49.91;100337.84;5055307;28;46520;-79
2023/07/01 10:50:16;;;;;;;;;1.33;1.33;;;;;23.58;50.01;100340.53;5067857;28;45565;-79
2023/07/01 10:53:01;;;;;;;;;0.00;0.00;;;;;23.58;50.20;100336.88;5078863;27;45749;-76
2023/07/01 10:55:40;;;;;;;;;1.00;0.00;;;;;23.36;50.26;100299.44;5067331;28;45548;-75
2023/07/01 10:58:23;;;;;;;;;3.00;2.67;;;;;23.61;49.81;100334.97;5079070;27;45916;-78
2023/07/01 11:00:53;;;;;;;;;1.33;1.33;;;;;23.44;50.10;100296.47;5060100;27;45787;-77
2023/07/01 11:03:34;;;;;;;;;2.00;2.00;;;;;23.67;50.04;100328.41;5075767;28;45456;-79
2023/07/01 11:06:13;;;;;;;;;1.33;1.00;;;;;23.64;48.85;100312.13;5068210;27;45437;-78
2023/07/01 11:08:49;;;;;;;;;2.00;2.00;;;;;23.86;48.23;100334.16;5070321;27;46994;-76
2023/07/01 11:11:27;;;;;;;;;4.67;1.00;;;;;23.83;47.51;100316.03;5077711;28;45665;-76
2023/07/01 11:14:04;;;;;;;;;1.00;1.00;;;;;24.02;47.02;100332.66;5080311;27;45450;-74
2023/07/01 11:16:30;;;;;;;;;1.00;1.00;;;;;24.09;45.95;100331.47;5059267;28;45473;-79
2023/07/01 11:19:01;;;;;;;;;3.67;2.00;;;;;23.72;46.50;100250.91;5073602;27;45467;-79
2023/07/01 11:21:30;;;;;;;;;1.33;1.33;;;;;24.27;46.15;100320.84;5101847;27;45980;-78
2023/07/01 11:24:08;;;;;;;;;2.67;2.67;;;;;24.39;45.68;100327.69;5079544;27;45454;-78
2023/07/01 11:26:40;;;;;;;;;2.00;2.00;;;;;24.27;45.79;100290.81;5080728;27;45402;-80